ENSK

Stokmarknes Skagen Airport

Hadsel, Norway
METAR ENSK 232050Z 14017KT 9999 BKN045 M03/M12 Q1030
Observed Flight Rules
Feb-23 @ 20:50 UTC (2 hours ago) Visual Flight Rules
Wind Visibility Clouds
140° at 17 knots 10,000+ meters
  • Broken at 4,500' AGL
Temperatures Readings
Current -3°C / 27°F
Dewpoint -12°C / 10°F
Humidity 50%
Altimeter 30.41" Hg
Pressure 1030 hPa
Elevation 3
METAR ENSK 232050Z 14017KT 9999 BKN045 M03/M12 Q1030
Observed Flight Rules
Feb-23 @ 20:50 UTC
(2 hours ago)
VFR
Wind Visibility
140° at 17 knots 10,000+ meters
Clouds
  • Broken at 4,500' AGL
Temperature Dewpoint
-3°C / 27°F -12°C / 10°F
Humidity Altimeter Pressure
50% 30.41" Hg 1030 hPa